Vallican, Canada
Current Conditions -  °F | °C
As of 7:48 AM on Friday 31 Oct 2014 (Local Time) from CYCG Reporting Station
Light Rain Light Rain  
Wind Chill: 46°   Ceiling: 1800
Heat Index: 46°   Visibility: 5mi
Dew Point: 46°   Wind: 2mph
Humidity: 100%   Direction: NA
Pressure: 29.75"   Gusts: NA
Location:  49.57°N, 117.65°W
Report Text: CYCG 311448Z VRB02KT 5SM -RA BR FEW003 BKN018 OVC065 08/08 A2975 RMK SF2SC4SC2 VSBY 1 SW-NW SLP083
Loading
Personal Weather Stations






























Interactive Weather Map
Tropical Storm Tracking
New forecast layout! Learn more

10-Day Weather Forecast

Advertisements
Track Severe Weather on mobile